Time;durP1;ratioP1;P1;durP2;ratioP2;P2;SDS_P1;SDS_P2;PMS_P1;PMS_P2;Temp;Humidity;BMP_temperature;BMP_pressure;BME280_temperature;BME280_humidity;BME280_pressure;Samples;Min_cycle;Max_cycle;Signal;HPM_P1;HPM_P2
2022/04/27 00:00:15;;;;;;;20.35;14.45;;;;;;;;;;4995882;28;20030;-60
2022/04/27 00:02:41;;;;;;;16.13;10.27;;;;;;;;;;5013370;28;20026;-61
2022/04/27 00:05:07;;;;;;;15.55;9.23;;;;;;;;;;5013364;28;20447;-60
2022/04/27 00:07:33;;;;;;;19.77;10.55;;;;;;;;;;5013267;28;20030;-62
2022/04/27 00:09:58;;;;;;;18.23;8.82;;;;;;;;;;5013316;28;20030;-60
2022/04/27 00:12:25;;;;;;;15.43;8.70;;;;;;;;;;5013364;28;20029;-60
2022/04/27 00:14:50;;;;;;;13.52;7.63;;;;;;;;;;5012836;28;20057;-61
2022/04/27 00:17:16;;;;;;;19.15;8.95;;;;;;;;;;5013216;28;20052;-60
2022/04/27 00:19:41;;;;;;;11.90;7.70;;;;;;;;;;5013032;28;20037;-60
2022/04/27 00:22:07;;;;;;;18.20;9.20;;;;;;;;;;5012988;28;20053;-61
2022/04/27 00:24:32;;;;;;;17.45;10.57;;;;;;;;;;5031692;28;20548;-62
2022/04/27 00:26:58;;;;;;;18.38;11.25;;;;;;;;;;5032676;28;20043;-61
2022/04/27 00:29:23;;;;;;;16.83;10.30;;;;;;;;;;5032523;28;20025;-61
2022/04/27 00:31:49;;;;;;;51.67;25.70;;;;;;;;;;5032663;28;20075;-60
2022/04/27 00:34:14;;;;;;;68.57;28.65;;;;;;;;;;5032639;28;20474;-62
2022/04/27 00:36:40;;;;;;;41.67;19.88;;;;;;;;;;5032790;28;20055;-62
2022/04/27 00:39:05;;;;;;;29.10;13.95;;;;;;;;;;5032519;28;20021;-61
2022/04/27 00:41:31;;;;;;;23.65;13.20;;;;;;;;;;5032021;28;20022;-60
2022/04/27 00:43:56;;;;;;;22.00;11.40;;;;;;;;;;5031942;28;20426;-62
2022/04/27 00:46:22;;;;;;;17.60;9.68;;;;;;;;;;5032565;28;20053;-61
2022/04/27 00:48:48;;;;;;;28.80;13.43;;;;;;;;;;5032392;28;20037;-61
2022/04/27 00:51:17;;;;;;;21.10;11.70;;;;;;;;;;5032479;28;20136;-62
2022/04/27 00:53:43;;;;;;;19.85;11.50;;;;;;;;;;5014896;28;20021;-62
2022/04/27 00:56:10;;;;;;;32.45;15.25;;;;;;;;;;5032385;28;20033;-61
2022/04/27 00:58:36;;;;;;;24.35;12.98;;;;;;;;;;5032142;28;20482;-61
2022/04/27 01:01:01;;;;;;;22.23;11.20;;;;;;;;;;5032320;28;20061;-61
2022/04/27 01:03:27;;;;;;;36.58;19.20;;;;;;;;;;5032213;28;20087;-60
2022/04/27 01:05:53;;;;;;;30.90;15.45;;;;;;;;;;5032253;28;20047;-61
2022/04/27 01:08:22;;;;;;;30.77;16.48;;;;;;;;;;5032279;28;20048;-61
2022/04/27 01:10:49;;;;;;;23.35;13.23;;;;;;;;;;5032158;28;20052;-62
2022/04/27 01:13:16;;;;;;;29.50;16.75;;;;;;;;;;5032026;28;20021;-61
2022/04/27 01:15:42;;;;;;;29.35;15.57;;;;;;;;;;5032123;28;20030;-61
2022/04/27 01:18:11;;;;;;;33.00;14.20;;;;;;;;;;5032235;28;20035;-63
2022/04/27 01:20:38;;;;;;;23.75;12.30;;;;;;;;;;5032215;28;20028;-61
2022/04/27 01:23:06;;;;;;;28.52;12.45;;;;;;;;;;5031595;28;20513;-62
2022/04/27 01:25:49;;;;;;;19.98;11.55;;;;;;;;;;5031896;28;20112;-61
2022/04/27 01:28:19;;;;;;;30.77;13.63;;;;;;;;;;5032084;28;20029;-63
2022/04/27 01:30:45;;;;;;;26.02;13.93;;;;;;;;;;5032197;28;20026;-61
2022/04/27 01:33:11;;;;;;;23.77;13.15;;;;;;;;;;5032174;28;20025;-60
2022/04/27 01:35:37;;;;;;;21.10;10.82;;;;;;;;;;5032446;28;20382;-63
2022/04/27 01:38:03;;;;;;;16.90;10.40;;;;;;;;;;5032277;28;20530;-61
2022/04/27 01:40:29;;;;;;;16.73;10.15;;;;;;;;;;5031816;28;20144;-62
2022/04/27 01:42:55;;;;;;;15.63;9.13;;;;;;;;;;5031952;28;20025;-60
2022/04/27 01:45:21;;;;;;;17.65;9.55;;;;;;;;;;5032133;28;20030;-60
2022/04/27 01:47:46;;;;;;;18.27;9.90;;;;;;;;;;5031923;28;20026;-60
2022/04/27 01:50:12;;;;;;;20.60;8.82;;;;;;;;;;5031912;28;20026;-62
2022/04/27 01:55:22;;;;;;;16.08;9.07;;;;;;;;;;5035497;28;20394;-62
2022/04/27 01:57:48;;;;;;;16.92;9.95;;;;;;;;;;5035846;28;20108;-61
2022/04/27 02:00:15;;;;;;;15.95;9.38;;;;;;;;;;5035487;28;20068;-61
2022/04/27 02:02:41;;;;;;;14.52;9.45;;;;;;;;;;5035402;28;20025;-62
2022/04/27 02:05:07;;;;;;;20.42;10.02;;;;;;;;;;5035430;28;20025;-61
2022/04/27 02:07:32;;;;;;;18.45;10.30;;;;;;;;;;5035509;28;20482;-63
2022/04/27 02:09:58;;;;;;;17.38;10.60;;;;;;;;;;5035239;28;20104;-60
2022/04/27 02:12:24;;;;;;;15.20;9.05;;;;;;;;;;5035362;28;20021;-60
2022/04/27 02:14:49;;;;;;;17.48;9.15;;;;;;;;;;5035222;28;20439;-61
2022/04/27 02:17:15;;;;;;;18.40;9.68;;;;;;;;;;5035234;28;20028;-60
2022/04/27 02:19:41;;;;;;;16.38;10.45;;;;;;;;;;5035215;28;20045;-60
2022/04/27 02:22:06;;;;;;;17.45;9.32;;;;;;;;;;5034942;28;20074;-59
2022/04/27 02:24:32;;;;;;;16.95;10.07;;;;;;;;;;5034608;28;20030;-60
2022/04/27 02:26:58;;;;;;;14.02;8.60;;;;;;;;;;5035021;28;20025;-60
2022/04/27 02:29:23;;;;;;;16.38;8.68;;;;;;;;;;5034869;28;20394;-60
2022/04/27 02:31:49;;;;;;;15.45;9.30;;;;;;;;;;5017317;28;20067;-62
2022/04/27 02:34:15;;;;;;;17.63;9.02;;;;;;;;;;5034839;28;20032;-62
2022/04/27 02:36:40;;;;;;;13.27;8.80;;;;;;;;;;5034997;28;20025;-60
2022/04/27 02:39:06;;;;;;;16.08;8.57;;;;;;;;;;5034552;28;20029;-60
2022/04/27 02:41:31;;;;;;;14.48;8.80;;;;;;;;;;5034841;28;20029;-61
2022/04/27 02:43:57;;;;;;;15.38;8.30;;;;;;;;;;5034744;28;20088;-60
2022/04/27 02:46:23;;;;;;;15.35;8.35;;;;;;;;;;5034710;28;20026;-61
2022/04/27 02:54:16;;;;;;;18.67;9.82;;;;;;;;;;5034393;28;20060;-60
2022/04/27 02:56:45;;;;;;;17.70;9.60;;;;;;;;;;5034652;28;20427;-61
2022/04/27 02:59:11;;;;;;;13.95;8.48;;;;;;;;;;5034482;28;20390;-62
2022/04/27 03:01:38;;;;;;;16.08;8.48;;;;;;;;;;5034473;28;20036;-60
2022/04/27 03:04:04;;;;;;;16.80;8.60;;;;;;;;;;5034305;28;20025;-61
2022/04/27 03:06:30;;;;;;;11.73;7.97;;;;;;;;;;5033581;28;20486;-59
2022/04/27 03:08:55;;;;;;;15.40;8.38;;;;;;;;;;5034015;28;20112;-59
2022/04/27 03:11:21;;;;;;;17.05;9.13;;;;;;;;;;5034395;28;20037;-61
2022/04/27 03:13:46;;;;;;;17.33;8.82;;;;;;;;;;5034312;28;20025;-60
2022/04/27 03:16:12;;;;;;;17.25;8.77;;;;;;;;;;5034036;28;20026;-61
2022/04/27 03:18:38;;;;;;;17.98;9.02;;;;;;;;;;5034108;28;20029;-59
2022/04/27 03:21:03;;;;;;;22.70;12.55;;;;;;;;;;5034042;28;20018;-60
2022/04/27 03:23:29;;;;;;;23.02;10.95;;;;;;;;;;5033489;28;20046;-60
2022/04/27 03:25:54;;;;;;;19.33;9.30;;;;;;;;;;5034093;28;20069;-60
2022/04/27 03:28:20;;;;;;;35.25;11.20;;;;;;;;;;5033932;28;20108;-59
2022/04/27 03:30:47;;;;;;;15.80;9.38;;;;;;;;;;5033797;28;20044;-60
2022/04/27 03:33:13;;;;;;;15.63;9.38;;;;;;;;;;5033753;28;20040;-60
2022/04/27 03:35:38;;;;;;;17.55;9.05;;;;;;;;;;5033814;28;20159;-60
2022/04/27 03:38:04;;;;;;;16.33;8.93;;;;;;;;;;5033683;28;20152;-61
2022/04/27 03:40:30;;;;;;;21.50;8.85;;;;;;;;;;5033666;28;20025;-60
2022/04/27 03:42:56;;;;;;;18.58;9.75;;;;;;;;;;5033552;28;20037;-59
2022/04/27 03:45:21;;;;;;;23.27;10.50;;;;;;;;;;5033827;28;20112;-60
2022/04/27 03:47:47;;;;;;;22.23;10.10;;;;;;;;;;5033494;28;20025;-61
2022/04/27 03:50:13;;;;;;;28.42;10.43;;;;;;;;;;5033273;28;20506;-62
2022/04/27 03:52:39;;;;;;;19.00;9.30;;;;;;;;;;5033240;28;20061;-60
2022/04/27 03:55:04;;;;;;;20.85;9.93;;;;;;;;;;5033358;28;20028;-61
2022/04/27 03:57:30;;;;;;;22.77;10.77;;;;;;;;;;5033447;28;20359;-60
2022/04/27 03:59:56;;;;;;;31.23;11.90;;;;;;;;;;5033322;28;20485;-60
2022/04/27 04:02:21;;;;;;;28.77;12.38;;;;;;;;;;5033253;28;20033;-62
2022/04/27 04:04:48;;;;;;;28.30;12.48;;;;;;;;;;5033075;28;20121;-60
2022/04/27 04:07:13;;;;;;;26.38;11.95;;;;;;;;;;5032986;28;20381;-60
2022/04/27 04:09:39;;;;;;;26.58;12.05;;;;;;;;;;5033205;28;20029;-61
2022/04/27 04:12:06;;;;;;;31.88;12.45;;;;;;;;;;5033120;28;20071;-62
2022/04/27 04:14:32;;;;;;;33.00;13.23;;;;;;;;;;5033173;28;20037;-62
2022/04/27 04:16:58;;;;;;;28.60;13.60;;;;;;;;;;5032910;28;20467;-60
2022/04/27 04:19:23;;;;;;;37.83;13.82;;;;;;;;;;5032880;28;20159;-60
2022/04/27 04:21:49;;;;;;;35.08;14.00;;;;;;;;;;5032388;28;20051;-62
2022/04/27 04:24:14;;;;;;;37.38;13.95;;;;;;;;;;5032687;28;20179;-61
2022/04/27 04:29:24;;;;;;;36.40;13.77;;;;;;;;;;5033154;28;20532;-60
2022/04/27 04:31:49;;;;;;;35.90;14.50;;;;;;;;;;5032840;28;20109;-60
2022/04/27 04:34:15;;;;;;;35.08;13.95;;;;;;;;;;5032582;28;20485;-61
2022/04/27 04:36:40;;;;;;;31.38;12.82;;;;;;;;;;5032760;28;20079;-60
2022/04/27 04:39:06;;;;;;;29.75;13.10;;;;;;;;;;5032664;28;20394;-61
2022/04/27 04:41:31;;;;;;;42.75;14.95;;;;;;;;;;5032442;28;20018;-60
2022/04/27 04:43:57;;;;;;;29.67;12.13;;;;;;;;;;5032548;28;20029;-62
2022/04/27 04:46:22;;;;;;;26.67;13.10;;;;;;;;;;5032692;28;20104;-60
2022/04/27 04:48:48;;;;;;;24.40;11.40;;;;;;;;;;5032379;28;20033;-61
2022/04/27 04:51:13;;;;;;;25.55;11.65;;;;;;;;;;5032721;28;20520;-60
2022/04/27 04:53:39;;;;;;;23.70;11.60;;;;;;;;;;5014896;28;20091;-60
2022/04/27 04:56:04;;;;;;;23.23;11.00;;;;;;;;;;5032499;28;20061;-61
2022/04/27 04:58:30;;;;;;;21.25;11.70;;;;;;;;;;5032290;28;20080;-60
2022/04/27 05:00:55;;;;;;;27.20;11.60;;;;;;;;;;5032273;28;20025;-60
2022/04/27 05:03:21;;;;;;;21.55;11.68;;;;;;;;;;5032084;28;20494;-61
2022/04/27 05:05:46;;;;;;;23.92;11.70;;;;;;;;;;5032454;28;20032;-61
2022/04/27 05:08:12;;;;;;;21.48;10.63;;;;;;;;;;5032374;28;20029;-61
2022/04/27 05:10:38;;;;;;;24.95;11.38;;;;;;;;;;5032151;28;20030;-61
2022/04/27 05:13:04;;;;;;;19.90;10.48;;;;;;;;;;5014422;28;20033;-61
2022/04/27 05:15:29;;;;;;;19.55;9.93;;;;;;;;;;5032299;28;20034;-61
2022/04/27 05:17:55;;;;;;;31.38;11.32;;;;;;;;;;5032008;28;20033;-61
2022/04/27 05:20:20;;;;;;;20.42;9.88;;;;;;;;;;5032162;28;20030;-61
2022/04/27 05:22:46;;;;;;;20.00;10.27;;;;;;;;;;5031751;28;20412;-62
2022/04/27 05:25:11;;;;;;;18.95;10.32;;;;;;;;;;5032220;28;20060;-62
2022/04/27 05:27:38;;;;;;;18.58;10.07;;;;;;;;;;5032039;28;20022;-62
2022/04/27 05:32:51;;;;;;;21.65;10.00;;;;;;;;;;5035861;28;20039;-61
2022/04/27 05:35:17;;;;;;;18.85;9.77;;;;;;;;;;5036077;28;20033;-61
2022/04/27 05:37:43;;;;;;;17.63;9.98;;;;;;;;;;5035980;28;20037;-60
2022/04/27 05:40:10;;;;;;;19.95;10.65;;;;;;;;;;5035782;28;20083;-63
2022/04/27 05:42:36;;;;;;;17.58;9.82;;;;;;;;;;5035740;28;20021;-61
2022/04/27 05:45:03;;;;;;;19.75;10.38;;;;;;;;;;5035858;28;20053;-60
2022/04/27 05:47:29;;;;;;;21.73;10.45;;;;;;;;;;5035497;28;20025;-61
2022/04/27 05:49:54;;;;;;;19.55;9.38;;;;;;;;;;5035714;28;20458;-61
2022/04/27 05:52:20;;;;;;;25.73;10.05;;;;;;;;;;5035732;28;20040;-60
2022/04/27 05:54:47;;;;;;;26.98;10.35;;;;;;;;;;5035774;28;20385;-62
2022/04/27 05:57:12;;;;;;;18.83;10.13;;;;;;;;;;5035709;28;20052;-60
2022/04/27 05:59:38;;;;;;;20.38;10.73;;;;;;;;;;5035703;28;20471;-61
2022/04/27 06:02:04;;;;;;;21.70;9.75;;;;;;;;;;5035429;28;20048;-62
2022/04/27 06:04:29;;;;;;;18.95;10.50;;;;;;;;;;5035525;28;20037;-61
2022/04/27 06:06:55;;;;;;;18.50;10.10;;;;;;;;;;5035470;28;20018;-61
2022/04/27 06:09:20;;;;;;;19.20;9.93;;;;;;;;;;5035431;28;20053;-60
2022/04/27 06:11:46;;;;;;;21.33;10.07;;;;;;;;;;5035393;28;20108;-60
2022/04/27 06:14:11;;;;;;;19.38;9.90;;;;;;;;;;5035279;28;20032;-62
2022/04/27 06:16:37;;;;;;;17.85;10.45;;;;;;;;;;5034678;28;20030;-60
2022/04/27 06:19:04;;;;;;;18.42;10.38;;;;;;;;;;5035117;28;20032;-60
2022/04/27 06:21:33;;;;;;;20.30;10.93;;;;;;;;;;5017315;28;20513;-60
2022/04/27 06:24:00;;;;;;;22.67;10.45;;;;;;;;;;5034987;28;20044;-61
2022/04/27 06:26:26;;;;;;;18.55;9.85;;;;;;;;;;5035057;28;20029;-61
2022/04/27 06:28:53;;;;;;;16.30;9.95;;;;;;;;;;5034939;28;20060;-61
2022/04/27 06:31:19;;;;;;;22.05;10.98;;;;;;;;;;5034721;28;20044;-60
2022/04/27 06:33:44;;;;;;;20.73;10.88;;;;;;;;;;5034749;28;20048;-60
2022/04/27 06:36:10;;;;;;;18.73;10.13;;;;;;;;;;5035018;28;20025;-60
2022/04/27 06:38:36;;;;;;;19.17;10.55;;;;;;;;;;5034835;28;20455;-60
2022/04/27 06:41:02;;;;;;;21.90;10.57;;;;;;;;;;5034937;28;20122;-60
2022/04/27 06:43:27;;;;;;;15.23;9.90;;;;;;;;;;5034825;28;20498;-60
2022/04/27 06:45:53;;;;;;;18.90;9.90;;;;;;;;;;5034510;28;20073;-62
2022/04/27 06:48:18;;;;;;;16.98;10.07;;;;;;;;;;5034805;28;20075;-60
2022/04/27 06:50:44;;;;;;;20.35;9.60;;;;;;;;;;5034695;28;20545;-60
2022/04/27 06:53:09;;;;;;;19.75;10.48;;;;;;;;;;5034633;28;20032;-61
2022/04/27 06:55:35;;;;;;;14.70;8.10;;;;;;;;;;5034716;28;20053;-63
2022/04/27 06:58:00;;;;;;;16.50;9.18;;;;;;;;;;5034668;28;20025;-61
2022/04/27 07:00:26;;;;;;;15.35;8.48;;;;;;;;;;5034222;28;20471;-60
2022/04/27 07:02:52;;;;;;;12.45;7.32;;;;;;;;;;5034296;28;20029;-61
2022/04/27 07:05:19;;;;;;;17.17;7.32;;;;;;;;;;5034393;28;20048;-62
2022/04/27 07:07:45;;;;;;;11.93;7.57;;;;;;;;;;5034384;28;20061;-61
2022/04/27 07:10:12;;;;;;;14.98;8.55;;;;;;;;;;5034200;28;20091;-62
2022/04/27 07:12:38;;;;;;;14.13;9.15;;;;;;;;;;5034365;28;20025;-61
2022/04/27 07:15:04;;;;;;;14.82;7.95;;;;;;;;;;5033918;28;20022;-60
2022/04/27 07:17:29;;;;;;;11.57;8.40;;;;;;;;;;5034233;28;20101;-61
2022/04/27 07:19:56;;;;;;;14.13;8.75;;;;;;;;;;5034095;28;20062;-61
2022/04/27 07:22:22;;;;;;;12.57;8.88;;;;;;;;;;5033659;28;20072;-59
2022/04/27 07:24:49;;;;;;;12.80;8.90;;;;;;;;;;5034108;28;20072;-61
2022/04/27 07:27:15;;;;;;;13.95;8.70;;;;;;;;;;5034038;28;20030;-61
2022/04/27 07:29:40;;;;;;;13.48;9.20;;;;;;;;;;5033644;28;20021;-62
2022/04/27 07:32:06;;;;;;;14.30;8.65;;;;;;;;;;5016285;28;20046;-62
2022/04/27 07:34:32;;;;;;;12.50;9.57;;;;;;;;;;5033829;28;20030;-61
2022/04/27 07:36:58;;;;;;;13.57;9.90;;;;;;;;;;5025938;28;20036;-61
2022/04/27 07:39:24;;;;;;;16.65;8.52;;;;;;;;;;5030260;28;20039;-61
2022/04/27 07:41:50;;;;;;;12.05;7.25;;;;;;;;;;5022246;28;20025;-61
2022/04/27 07:44:15;;;;;;;9.32;5.70;;;;;;;;;;5023380;28;20037;-58
2022/04/27 07:46:42;;;;;;;13.02;6.18;;;;;;;;;;5022532;28;20032;-62
2022/04/27 07:49:07;;;;;;;8.82;5.53;;;;;;;;;;5023286;28;20168;-61
2022/04/27 07:51:33;;;;;;;10.90;5.70;;;;;;;;;;5022761;28;20459;-62
2022/04/27 07:53:58;;;;;;;12.25;5.97;;;;;;;;;;5021786;28;20041;-63
2022/04/27 07:56:24;;;;;;;12.55;5.55;;;;;;;;;;5024026;28;20100;-61
2022/04/27 07:58:49;;;;;;;8.82;5.25;;;;;;;;;;5022475;28;20026;-58
2022/04/27 08:01:15;;;;;;;11.23;4.63;;;;;;;;;;5022251;28;20029;-58
2022/04/27 08:03:40;;;;;;;7.80;5.50;;;;;;;;;;5005973;28;20518;-60
2022/04/27 08:06:06;;;;;;;8.60;5.10;;;;;;;;;;5021966;28;20097;-62
2022/04/27 08:08:32;;;;;;;7.95;4.80;;;;;;;;;;5022882;28;20497;-61
2022/04/27 08:10:57;;;;;;;6.32;4.35;;;;;;;;;;5023593;28;20438;-61
2022/04/27 08:13:23;;;;;;;8.07;4.40;;;;;;;;;;5021040;28;20018;-60
2022/04/27 08:15:49;;;;;;;9.35;4.68;;;;;;;;;;5022984;28;20648;-59
2022/04/27 08:18:14;;;;;;;8.55;4.55;;;;;;;;;;5022966;28;20022;-63
2022/04/27 08:23:30;;;;;;;9.77;4.60;;;;;;;;;;5023000;28;20095;-59
2022/04/27 08:26:00;;;;;;;6.63;4.20;;;;;;;;;;5022963;28;20033;-61
2022/04/27 08:28:27;;;;;;;17.00;5.75;;;;;;;;;;5021623;28;20030;-61
2022/04/27 08:30:53;;;;;;;5.68;3.35;;;;;;;;;;5021991;28;20532;-61
2022/04/27 08:33:19;;;;;;;5.78;3.55;;;;;;;;;;5023462;28;20048;-60
2022/04/27 08:35:46;;;;;;;6.03;4.18;;;;;;;;;;5021518;28;20028;-60
2022/04/27 08:38:11;;;;;;;10.43;4.18;;;;;;;;;;5022777;28;20510;-60
2022/04/27 08:40:43;;;;;;;6.45;4.15;;;;;;;;;;5022863;28;20053;-61
2022/04/27 08:43:12;;;;;;;10.35;4.22;;;;;;;;;;5018610;28;20033;-61
2022/04/27 08:45:41;;;;;;;6.53;4.65;;;;;;;;;;5031760;28;20036;-61
2022/04/27 08:48:08;;;;;;;8.68;4.07;;;;;;;;;;5032045;28;20163;-61
2022/04/27 08:50:33;;;;;;;7.10;4.32;;;;;;;;;;5032543;28;20033;-61
2022/04/27 08:52:59;;;;;;;7.20;4.10;;;;;;;;;;5032127;28;20468;-61
2022/04/27 08:55:27;;;;;;;9.32;5.00;;;;;;;;;;5014284;28;20022;-61
2022/04/27 08:57:54;;;;;;;9.07;5.85;;;;;;;;;;5009856;28;20053;-62
2022/04/27 09:00:22;;;;;;;5.70;3.60;;;;;;;;;;5032450;28;20470;-62
2022/04/27 09:02:52;;;;;;;5.82;3.15;;;;;;;;;;5029863;28;20026;-61
2022/04/27 09:05:22;;;;;;;5.22;4.00;;;;;;;;;;5032521;28;20136;-63
2022/04/27 09:07:52;;;;;;;;;;;;;;;;;;5032609;28;20034;-62
2022/04/27 09:10:25;;;;;;;15.10;4.85;;;;;;;;;;5032101;28;19913;-62
2022/04/27 09:12:56;;;;;;;9.93;4.55;;;;;;;;;;5014177;28;20056;-62
2022/04/27 09:15:24;;;;;;;6.18;4.50;;;;;;;;;;5031621;28;20022;-63
2022/04/27 09:20:47;;;;;;;5.72;4.00;;;;;;;;;;5032674;28;20029;-62
2022/04/27 09:23:37;;;;;;;8.30;4.10;;;;;;;;;;5031697;28;20164;-62
2022/04/27 09:26:21;;;;;;;8.02;3.65;;;;;;;;;;5031942;28;20022;-62
2022/04/27 09:28:48;;;;;;;8.88;4.80;;;;;;;;;;5031899;28;20109;-63
2022/04/27 09:31:31;;;;;;;9.77;4.20;;;;;;;;;;5031997;28;20025;-62
2022/04/27 09:33:58;;;;;;;7.70;3.63;;;;;;;;;;5032088;28;20022;-61
2022/04/27 09:36:24;;;;;;;4.80;3.53;;;;;;;;;;5032038;28;20025;-61
2022/04/27 09:38:51;;;;;;;6.63;4.10;;;;;;;;;;5031610;28;20033;-61
2022/04/27 09:41:36;;;;;;;13.85;4.13;;;;;;;;;;5031773;28;20152;-62
2022/04/27 09:44:01;;;;;;;5.10;3.35;;;;;;;;;;5031954;28;20033;-62
2022/04/27 09:46:26;;;;;;;7.95;4.15;;;;;;;;;;5031991;28;20022;-61
2022/04/27 09:49:04;;;;;;;5.13;3.33;;;;;;;;;;5031895;28;20115;-62
2022/04/27 09:51:30;;;;;;;5.35;3.20;;;;;;;;;;5031985;28;20025;-62
2022/04/27 09:54:00;;;;;;;5.88;3.17;;;;;;;;;;5031607;28;20079;-61
2022/04/27 09:56:33;;;;;;;5.70;2.80;;;;;;;;;;5031983;28;20034;-62
2022/04/27 09:59:04;;;;;;;6.18;3.17;;;;;;;;;;5031796;28;20363;-62
2022/04/27 10:01:36;;;;;;;6.68;3.47;;;;;;;;;;5031810;28;20383;-62
2022/04/27 10:04:04;;;;;;;9.43;3.00;;;;;;;;;;5031569;28;20117;-62
2022/04/27 10:06:34;;;;;;;8.77;3.20;;;;;;;;;;5031431;28;20100;-64
2022/04/27 10:09:00;;;;;;;5.38;3.20;;;;;;;;;;5031516;28;20108;-61
2022/04/27 10:11:31;;;;;;;5.97;3.05;;;;;;;;;;5031453;28;20029;-61
2022/04/27 10:13:56;;;;;;;6.55;3.00;;;;;;;;;;5031879;28;20105;-62
2022/04/27 10:16:23;;;;;;;5.57;3.15;;;;;;;;;;5035267;28;20096;-62
2022/04/27 10:18:50;;;;;;;4.85;2.60;;;;;;;;;;5034998;28;20025;-62
2022/04/27 10:21:39;;;;;;;8.68;3.00;;;;;;;;;;5035235;28;20021;-61
2022/04/27 10:24:12;;;;;;;5.22;3.00;;;;;;;;;;5034635;28;20128;-62
2022/04/27 10:26:38;;;;;;;5.45;2.65;;;;;;;;;;5035219;28;20479;-62
2022/04/27 10:29:05;;;;;;;3.97;2.53;;;;;;;;;;5033898;28;20104;-62
2022/04/27 10:31:40;;;;;;;4.03;2.70;;;;;;;;;;5034936;28;20072;-62
2022/04/27 10:34:17;;;;;;;5.32;2.70;;;;;;;;;;5034736;28;20025;-62
2022/04/27 10:36:44;;;;;;;7.97;2.90;;;;;;;;;;5034705;28;20025;-62
2022/04/27 10:39:12;;;;;;;3.75;2.67;;;;;;;;;;5034005;28;20391;-62
2022/04/27 10:41:47;;;;;;;4.72;2.20;;;;;;;;;;5034718;28;20048;-63
2022/04/27 10:44:13;;;;;;;4.53;2.50;;;;;;;;;;5034603;28;20029;-61
2022/04/27 10:46:41;;;;;;;5.43;2.88;;;;;;;;;;5034728;28;20488;-62
2022/04/27 10:49:24;;;;;;;4.20;2.90;;;;;;;;;;5034420;28;20034;-63
2022/04/27 10:52:03;;;;;;;5.30;2.80;;;;;;;;;;5034294;28;20029;-62
2022/04/27 10:54:33;;;;;;;6.10;3.10;;;;;;;;;;5034468;28;20390;-62
2022/04/27 10:57:16;;;;;;;3.70;2.70;;;;;;;;;;5034464;28;20103;-61
2022/04/27 10:59:47;;;;;;;10.48;3.50;;;;;;;;;;5034047;28;20124;-62
2022/04/27 11:02:36;;;;;;;4.47;3.13;;;;;;;;;;5034267;28;20025;-61
2022/04/27 11:05:02;;;;;;;4.53;3.13;;;;;;;;;;5034127;28;20040;-62
2022/04/27 11:07:36;;;;;;;9.40;3.20;;;;;;;;;;5034020;28;20419;-61
2022/04/27 11:10:09;;;;;;;6.15;2.88;;;;;;;;;;5034047;28;20029;-62
2022/04/27 11:12:39;;;;;;;4.68;2.65;;;;;;;;;;5034059;28;20075;-62
2022/04/27 11:15:10;;;;;;;5.40;2.42;;;;;;;;;;5033938;28;20037;-61
2022/04/27 11:17:37;;;;;;;3.83;2.42;;;;;;;;;;5034169;28;20065;-62
2022/04/27 11:20:03;;;;;;;4.07;2.50;;;;;;;;;;5033764;28;20367;-62
2022/04/27 11:22:38;;;;;;;6.97;2.58;;;;;;;;;;5033699;28;20045;-62
2022/04/27 11:25:06;;;;;;;6.60;2.47;;;;;;;;;;5033870;28;20048;-61
2022/04/27 11:27:34;;;;;;;5.10;2.33;;;;;;;;;;5032925;28;20091;-61
2022/04/27 11:30:04;;;;;;;10.32;3.13;;;;;;;;;;5033892;28;20021;-63
2022/04/27 11:32:30;;;;;;;5.65;2.92;;;;;;;;;;5033900;28;20056;-63
2022/04/27 11:34:55;;;;;;;5.05;3.10;;;;;;;;;;5033455;28;20025;-63
2022/04/27 11:37:21;;;;;;;5.45;2.50;;;;;;;;;;5033692;28;20026;-61
2022/04/27 11:39:48;;;;;;;6.70;2.45;;;;;;;;;;5033440;28;20034;-61
2022/04/27 11:42:16;;;;;;;7.68;2.45;;;;;;;;;;5032759;28;20033;-62
2022/04/27 11:44:43;;;;;;;5.88;2.63;;;;;;;;;;5019487;28;20034;-62
2022/04/27 11:47:31;;;;;;;5.45;2.47;;;;;;;;;;5037251;28;20032;-62
2022/04/27 11:49:58;;;;;;;4.25;2.25;;;;;;;;;;5032911;28;20030;-62
2022/04/27 11:52:24;;;;;;;4.35;2.03;;;;;;;;;;5033275;28;20479;-62
2022/04/27 11:54:49;;;;;;;11.95;2.53;;;;;;;;;;5033322;28;20103;-63
2022/04/27 11:57:24;;;;;;;5.30;2.33;;;;;;;;;;5033202;28;20091;-61
2022/04/27 12:00:02;;;;;;;6.13;2.20;;;;;;;;;;5033118;28;20025;-60
2022/04/27 12:02:27;;;;;;;5.15;2.25;;;;;;;;;;5033069;28;20044;-61
2022/04/27 12:04:57;;;;;;;3.03;1.80;;;;;;;;;;5032590;28;20030;-61
2022/04/27 12:07:22;;;;;;;4.85;2.47;;;;;;;;;;5033114;28;20026;-60
2022/04/27 12:10:09;;;;;;;8.68;2.67;;;;;;;;;;5032836;28;20402;-60
2022/04/27 12:12:38;;;;;;;4.82;2.10;;;;;;;;;;5033123;28;20379;-60
2022/04/27 12:15:11;;;;;;;2.97;1.90;;;;;;;;;;5032909;28;20497;-60
2022/04/27 12:17:41;;;;;;;3.03;2.00;;;;;;;;;;5032719;28;20037;-61
2022/04/27 12:20:07;;;;;;;5.05;2.35;;;;;;;;;;5032455;28;20029;-60
2022/04/27 12:22:33;;;;;;;6.38;2.53;;;;;;;;;;5032461;28;20103;-61
2022/04/27 12:25:05;;;;;;;10.75;3.22;;;;;;;;;;5032520;28;20487;-60
2022/04/27 12:27:31;;;;;;;4.35;2.22;;;;;;;;;;5032641;28;20026;-62
2022/04/27 12:30:06;;;;;;;4.72;2.80;;;;;;;;;;5032720;28;20084;-62
2022/04/27 12:32:33;;;;;;;5.07;2.50;;;;;;;;;;5032508;28;20029;-62
2022/04/27 12:37:54;;;;;;;9.07;2.90;;;;;;;;;;5032439;28;20056;-62
2022/04/27 12:40:20;;;;;;;9.85;2.95;;;;;;;;;;5033115;28;20017;-62
2022/04/27 12:43:00;;;;;;;5.43;2.33;;;;;;;;;;5032580;28;20034;-62
2022/04/27 12:45:26;;;;;;;10.32;2.67;;;;;;;;;;5032492;28;20367;-62
2022/04/27 12:47:52;;;;;;;5.35;2.65;;;;;;;;;;5031794;28;20029;-62
2022/04/27 12:50:18;;;;;;;7.82;2.35;;;;;;;;;;5014579;28;20029;-62
2022/04/27 12:52:45;;;;;;;9.32;2.92;;;;;;;;;;5032154;28;20032;-62
2022/04/27 12:55:15;;;;;;;12.70;3.05;;;;;;;;;;5032370;28;20033;-61
2022/04/27 12:57:55;;;;;;;8.02;2.97;;;;;;;;;;5032266;28;20091;-59
2022/04/27 13:00:45;;;;;;;7.40;4.10;;;;;;;;;;5032243;28;20545;-59
2022/04/27 13:03:12;;;;;;;6.82;4.35;;;;;;;;;;5032363;28;20032;-60
2022/04/27 13:05:40;;;;;;;7.10;4.25;;;;;;;;;;5032162;28;20079;-60
2022/04/27 13:08:10;;;;;;;6.90;3.40;;;;;;;;;;5031915;28;20410;-60
2022/04/27 13:13:22;;;;;;;7.07;2.70;;;;;;;;;;5032080;28;20548;-60
2022/04/27 13:15:49;;;;;;;4.57;2.50;;;;;;;;;;5032148;28;20022;-60
2022/04/27 13:18:16;;;;;;;7.32;2.92;;;;;;;;;;5031736;28;20159;-59
2022/04/27 13:20:41;;;;;;;8.90;2.60;;;;;;;;;;5031773;28;20025;-61
2022/04/27 13:23:09;;;;;;;3.90;2.33;;;;;;;;;;5031035;28;20059;-60
2022/04/27 13:25:35;;;;;;;7.05;2.53;;;;;;;;;;5031816;28;20040;-60
2022/04/27 13:28:00;;;;;;;4.40;2.40;;;;;;;;;;5031182;28;20047;-60
2022/04/27 13:30:26;;;;;;;7.93;2.90;;;;;;;;;;5031062;28;20025;-60
2022/04/27 13:32:52;;;;;;;7.03;2.90;;;;;;;;;;5031975;28;20017;-61
2022/04/27 13:35:18;;;;;;;7.03;3.20;;;;;;;;;;5013871;28;20033;-61
2022/04/27 13:37:44;;;;;;;4.95;2.85;;;;;;;;;;5029091;28;20120;-59
2022/04/27 13:40:10;;;;;;;5.40;2.72;;;;;;;;;;5029263;28;20040;-60
2022/04/27 13:42:40;;;;;;;11.40;3.05;;;;;;;;;;5026537;28;20021;-62
2022/04/27 13:45:06;;;;;;;12.18;3.63;;;;;;;;;;5027263;28;20044;-61
2022/04/27 13:47:33;;;;;;;7.55;2.47;;;;;;;;;;5030825;28;20033;-61
2022/04/27 13:50:02;;;;;;;6.15;2.63;;;;;;;;;;5049932;28;20025;-61
2022/04/27 13:52:29;;;;;;;9.70;2.67;;;;;;;;;;5040234;28;20032;-62
2022/04/27 13:54:54;;;;;;;9.98;3.95;;;;;;;;;;5045807;28;20029;-60
2022/04/27 13:57:20;;;;;;;5.90;2.97;;;;;;;;;;5035336;28;20433;-61
2022/04/27 13:59:45;;;;;;;9.40;3.35;;;;;;;;;;5035030;28;20116;-60
2022/04/27 14:02:13;;;;;;;6.35;3.30;;;;;;;;;;5035642;28;20550;-60
2022/04/27 14:04:40;;;;;;;7.10;3.08;;;;;;;;;;5033987;28;20113;-60
2022/04/27 14:07:06;;;;;;;8.25;3.55;;;;;;;;;;5034314;28;20481;-62
2022/04/27 14:09:32;;;;;;;6.57;2.80;;;;;;;;;;5035524;28;20107;-62
2022/04/27 14:14:42;;;;;;;8.57;3.20;;;;;;;;;;5034937;28;20537;-62
2022/04/27 14:19:51;;;;;;;9.63;3.70;;;;;;;;;;5034508;28;20071;-62
2022/04/27 14:22:17;;;;;;;7.38;3.45;;;;;;;;;;5016493;28;20050;-61
2022/04/27 14:24:43;;;;;;;5.75;2.80;;;;;;;;;;5034447;28;20517;-61
2022/04/27 14:27:08;;;;;;;8.02;3.08;;;;;;;;;;5031930;28;20108;-61
2022/04/27 14:29:34;;;;;;;11.73;3.42;;;;;;;;;;5026191;28;20026;-61
2022/04/27 14:32:02;;;;;;;8.45;3.08;;;;;;;;;;5024656;28;20022;-61
2022/04/27 14:34:30;;;;;;;5.88;3.00;;;;;;;;;;5008837;28;20033;-61
2022/04/27 14:36:57;;;;;;;5.63;3.33;;;;;;;;;;5026608;28;20084;-62
2022/04/27 14:39:23;;;;;;;10.15;4.70;;;;;;;;;;5024744;28;20486;-62
2022/04/27 14:41:51;;;;;;;71.07;34.78;;;;;;;;;;5023661;28;20471;-61
2022/04/27 14:44:17;;;;;;;22.20;3.83;;;;;;;;;;5010109;28;20123;-61
2022/04/27 14:46:43;;;;;;;6.82;3.50;;;;;;;;;;5009360;28;20076;-61
2022/04/27 14:49:09;;;;;;;5.13;3.30;;;;;;;;;;5025677;28;20018;-62
2022/04/27 14:51:36;;;;;;;8.40;3.90;;;;;;;;;;5026304;28;20029;-61
2022/04/27 14:54:02;;;;;;;4.82;3.28;;;;;;;;;;5043816;28;20033;-62
2022/04/27 14:56:27;;;;;;;10.35;3.80;;;;;;;;;;5049476;28;20136;-61
2022/04/27 14:58:52;;;;;;;7.00;2.95;;;;;;;;;;5042511;28;20394;-61
2022/04/27 15:01:18;;;;;;;9.32;2.83;;;;;;;;;;5033317;28;20097;-61